Time;durP1;ratioP1;P1;durP2;ratioP2;P2;SDS_P1;SDS_P2;PMS_P1;PMS_P2;Temp;Humidity;BMP_temperature;BMP_pressure;BME280_temperature;BME280_humidity;BME280_pressure;Samples;Min_cycle;Max_cycle;Signal;HPM_P1;HPM_P2
2023/05/09 00:00:51;;;;;;;36.63;23.43;;;13.10;47.10;;;;;;5070133;28;20476;-68
2023/05/09 00:03:18;;;;;;;36.37;24.37;;;13.00;47.30;;;;;;5070535;28;20453;-68
2023/05/09 00:05:45;;;;;;;27.70;19.70;;;13.00;47.40;;;;;;5068327;28;20476;-68
2023/05/09 00:08:14;;;;;;;26.53;18.93;;;13.00;47.50;;;;;;5070424;28;20973;-69
2023/05/09 00:10:41;;;;;;;31.00;22.60;;;13.00;47.60;;;;;;5065734;28;21070;-68
2023/05/09 00:13:07;;;;;;;25.67;19.90;;;13.00;47.90;;;;;;5067083;28;20465;-68
2023/05/09 00:15:34;;;;;;;23.83;18.70;;;13.00;47.90;;;;;;5070470;28;21058;-68
2023/05/09 00:18:02;;;;;;;22.20;16.97;;;13.00;47.90;;;;;;5071956;28;20473;-68
2023/05/09 00:20:29;;;;;;;19.20;15.87;;;13.00;47.70;;;;;;5069635;28;20519;-68
2023/05/09 00:22:56;;;;;;;17.67;14.40;;;12.90;47.50;;;;;;5071890;28;20461;-68
2023/05/09 00:25:22;;;;;;;13.50;12.10;;;12.90;47.50;;;;;;5067624;28;20511;-68
2023/05/09 00:27:49;;;;;;;14.77;12.43;;;12.80;47.40;;;;;;5070939;28;20461;-68
2023/05/09 00:30:16;;;;;;;21.47;12.73;;;12.80;47.20;;;;;;5066419;28;20472;-68
2023/05/09 00:32:42;;;;;;;16.60;12.60;;;12.80;47.20;;;;;;5065020;28;20457;-68
2023/05/09 00:35:11;;;;;;;20.03;11.00;;;12.70;47.20;;;;;;5070567;28;20477;-69
2023/05/09 00:37:37;;;;;;;13.47;11.67;;;12.70;46.90;;;;;;5066518;28;20520;-68
2023/05/09 00:40:06;;;;;;;22.73;11.60;;;12.60;46.60;;;;;;5068305;28;20461;-68
2023/05/09 00:42:33;;;;;;;15.37;13.43;;;12.50;46.60;;;;;;5071189;28;20553;-68
2023/05/09 00:45:00;;;;;;;14.50;12.90;;;12.50;46.70;;;;;;5069319;28;20476;-68
2023/05/09 00:47:27;;;;;;;16.83;12.77;;;12.40;46.70;;;;;;5071678;28;20449;-68
2023/05/09 00:49:55;;;;;;;14.40;12.90;;;12.40;46.70;;;;;;5069457;28;20449;-68
2023/05/09 00:52:24;;;;;;;16.90;14.80;;;12.30;46.60;;;;;;5067306;28;20453;-68
2023/05/09 00:54:52;;;;;;;15.57;13.60;;;12.30;46.70;;;;;;5067555;28;20496;-68
2023/05/09 00:57:18;;;;;;;18.07;14.67;;;12.30;46.80;;;;;;5070294;28;20461;-68
2023/05/09 00:59:45;;;;;;;17.20;14.63;;;12.20;47.40;;;;;;5064171;28;20457;-68
2023/05/09 01:02:12;;;;;;;18.10;14.30;;;12.20;47.40;;;;;;5070388;28;20465;-68
2023/05/09 01:04:39;;;;;;;17.60;13.70;;;12.20;47.40;;;;;;5068777;28;20485;-68
2023/05/09 01:07:12;;;;;;;16.13;14.00;;;12.20;47.30;;;;;;5068757;28;21161;-68
2023/05/09 01:09:46;;;;;;;17.77;14.07;;;12.20;47.40;;;;;;5067252;28;20453;-68
2023/05/09 01:12:23;;;;;;;17.40;14.03;;;12.20;47.40;;;;;;5069053;28;20457;-68
2023/05/09 01:15:00;;;;;;;18.77;16.00;;;12.20;47.30;;;;;;5066437;28;20472;-68
2023/05/09 01:17:35;;;;;;;30.80;16.20;;;12.20;47.30;;;;;;5067155;28;20489;-68
2023/05/09 01:20:10;;;;;;;33.10;16.33;;;12.10;47.60;;;;;;5071071;28;20483;-68
2023/05/09 01:22:39;;;;;;;32.20;14.83;;;12.10;47.80;;;;;;5066294;28;20958;-68
2023/05/09 01:25:50;;;;;;;38.67;16.30;;;12.00;48.20;;;;;;5064164;28;20482;-68
2023/05/09 01:28:34;;;;;;;23.73;14.83;;;11.90;48.70;;;;;;5063722;28;20568;-68
2023/05/09 01:31:03;;;;;;;34.63;15.67;;;11.80;48.70;;;;;;5067166;28;20999;-68
2023/05/09 01:33:33;;;;;;;21.27;15.00;;;11.80;48.80;;;;;;5065025;28;20464;-68
2023/05/09 01:36:05;;;;;;;22.00;15.77;;;11.70;49.00;;;;;;5067790;28;20519;-69
2023/05/09 01:38:33;;;;;;;25.73;14.63;;;11.70;49.00;;;;;;5065882;28;20869;-68
2023/05/09 01:41:04;;;;;;;19.13;14.87;;;11.70;49.00;;;;;;5069227;28;21175;-69
2023/05/09 01:43:33;;;;;;;19.03;12.93;;;11.70;48.90;;;;;;5063977;28;20515;-68
2023/05/09 01:46:02;;;;;;;23.90;13.47;;;11.70;48.70;;;;;;5066816;28;21203;-68
2023/05/09 01:48:31;;;;;;;16.00;13.00;;;11.70;48.50;;;;;;5065520;28;21059;-68
2023/05/09 01:50:59;;;;;;;14.17;12.20;;;11.70;48.30;;;;;;5066034;28;20453;-68
2023/05/09 01:53:27;;;;;;;14.40;11.53;;;11.70;48.20;;;;;;5068147;28;20461;-68
2023/05/09 01:55:56;;;;;;;45.10;13.37;;;11.60;47.90;;;;;;5067796;28;20472;-68
2023/05/09 01:58:23;;;;;;;20.37;13.03;;;11.60;47.70;;;;;;5065441;28;20473;-68
2023/05/09 02:00:51;;;;;;;14.50;12.47;;;11.50;47.80;;;;;;5065131;28;20465;-68
2023/05/09 02:03:20;;;;;;;13.27;11.73;;;11.50;47.80;;;;;;5069443;28;20469;-68
2023/05/09 02:05:48;;;;;;;13.63;11.57;;;11.50;47.70;;;;;;5069321;28;21008;-68
2023/05/09 02:08:15;;;;;;;13.60;11.70;;;11.60;47.60;;;;;;5065733;28;21014;-68
2023/05/09 02:10:44;;;;;;;21.30;13.37;;;11.50;47.40;;;;;;5068818;28;20457;-68
2023/05/09 02:13:11;;;;;;;15.30;13.27;;;11.50;47.20;;;;;;5063599;28;20449;-68
2023/05/09 02:15:38;;;;;;;24.67;13.70;;;11.50;47.00;;;;;;5067965;28;20477;-68
2023/05/09 02:18:05;;;;;;;19.63;13.17;;;11.50;47.00;;;;;;5066932;28;20477;-68
2023/05/09 02:20:34;;;;;;;41.33;13.57;;;11.50;47.00;;;;;;5070293;28;20465;-68
2023/05/09 02:23:01;;;;;;;14.90;11.77;;;11.40;47.10;;;;;;5066733;28;20491;-68
2023/05/09 02:25:28;;;;;;;36.87;13.47;;;11.40;47.30;;;;;;5069781;28;20477;-68
2023/05/09 02:27:58;;;;;;;36.43;14.57;;;11.30;47.70;;;;;;5063296;28;20453;-68
2023/05/09 02:30:26;;;;;;;17.50;14.17;;;11.30;47.60;;;;;;5059155;28;20464;-68
2023/05/09 02:32:57;;;;;;;18.73;13.90;;;11.20;47.80;;;;;;5066570;28;20468;-68
2023/05/09 02:35:26;;;;;;;16.93;13.80;;;11.30;47.90;;;;;;5068761;28;20534;-68
2023/05/09 02:37:54;;;;;;;17.60;13.10;;;11.30;47.80;;;;;;5070078;28;20453;-68
2023/05/09 02:40:22;;;;;;;17.07;13.37;;;11.40;48.00;;;;;;5065757;28;20464;-68
2023/05/09 02:42:49;;;;;;;19.10;13.50;;;11.40;48.00;;;;;;5068747;28;20457;-68
2023/05/09 02:45:15;;;;;;;22.30;15.17;;;11.40;48.20;;;;;;5070195;28;20481;-68
2023/05/09 02:47:42;;;;;;;23.70;13.40;;;11.50;48.30;;;;;;5071367;28;20457;-68
2023/05/09 02:50:10;;;;;;;17.00;12.77;;;11.50;48.30;;;;;;5067901;28;20465;-68
2023/05/09 02:52:37;;;;;;;20.17;12.90;;;11.60;48.10;;;;;;5066438;28;20875;-68
2023/05/09 02:55:06;;;;;;;24.83;13.80;;;11.60;48.00;;;;;;5065967;28;20480;-69
2023/05/09 02:57:33;;;;;;;18.47;13.20;;;11.60;48.10;;;;;;5067516;28;20470;-68
2023/05/09 03:00:00;;;;;;;20.00;13.97;;;11.60;48.10;;;;;;5063644;28;20492;-68
2023/05/09 03:02:27;;;;;;;18.30;12.60;;;11.60;48.00;;;;;;5064750;28;20484;-68
2023/05/09 03:04:53;;;;;;;19.33;12.70;;;11.60;48.20;;;;;;5067229;28;21016;-68
2023/05/09 03:07:20;;;;;;;22.80;11.53;;;11.60;48.10;;;;;;5064482;28;20461;-68
2023/05/09 03:09:47;;;;;;;25.63;12.20;;;11.60;47.90;;;;;;5067265;28;20448;-68
2023/05/09 03:12:15;;;;;;;20.70;13.07;;;11.60;48.00;;;;;;5070317;28;20457;-68
2023/05/09 03:14:41;;;;;;;20.47;12.73;;;11.60;47.90;;;;;;5069101;28;20506;-68
2023/05/09 03:17:08;;;;;;;14.57;11.43;;;11.60;47.90;;;;;;5063536;28;20461;-68
2023/05/09 03:19:35;;;;;;;14.63;10.57;;;11.50;47.90;;;;;;5067744;28;20489;-68
2023/05/09 03:22:01;;;;;;;14.77;11.30;;;11.50;47.80;;;;;;5071640;28;20461;-68
2023/05/09 03:24:28;;;;;;;15.67;12.50;;;11.50;47.70;;;;;;5071002;28;20833;-68
2023/05/09 03:26:55;;;;;;;16.30;11.63;;;11.50;47.70;;;;;;5072809;28;20461;-68
2023/05/09 03:29:23;;;;;;;16.57;12.73;;;11.50;47.60;;;;;;5068854;28;20461;-68
2023/05/09 03:31:49;;;;;;;15.20;11.63;;;11.50;47.70;;;;;;5062523;28;20481;-67
2023/05/09 03:34:16;;;;;;;15.23;12.63;;;11.50;47.60;;;;;;5066086;28;20474;-69
2023/05/09 03:36:43;;;;;;;15.30;11.20;;;11.60;47.50;;;;;;5068204;28;20453;-68
2023/05/09 03:39:10;;;;;;;19.90;15.27;;;11.60;47.30;;;;;;5066237;28;20509;-68
2023/05/09 03:41:37;;;;;;;18.30;13.73;;;11.60;47.30;;;;;;5068553;28;20465;-68
2023/05/09 03:44:04;;;;;;;17.10;14.03;;;11.70;47.30;;;;;;5064033;28;20813;-69
2023/05/09 03:46:32;;;;;;;13.50;11.57;;;11.80;47.30;;;;;;5068608;28;20461;-68
2023/05/09 03:48:59;;;;;;;17.50;12.63;;;11.80;47.10;;;;;;5065273;28;20461;-68
2023/05/09 03:51:26;;;;;;;15.03;11.73;;;11.80;47.10;;;;;;5070331;28;20452;-67
2023/05/09 03:53:52;;;;;;;17.77;13.70;;;11.80;46.90;;;;;;5068937;28;20491;-66
2023/05/09 03:56:19;;;;;;;25.13;13.80;;;11.80;46.80;;;;;;5069024;28;20462;-68
2023/05/09 03:58:46;;;;;;;17.60;14.40;;;11.90;46.80;;;;;;5069205;28;20473;-69
2023/05/09 04:01:13;;;;;;;23.47;15.40;;;11.80;46.80;;;;;;5071917;28;20500;-69
2023/05/09 04:03:41;;;;;;;40.23;16.23;;;12.10;47.10;;;;;;5071406;28;20453;-68
2023/05/09 04:06:08;;;;;;;46.00;18.27;;;12.00;47.60;;;;;;5073209;28;20484;-67
2023/05/09 04:08:34;;;;;;;51.63;16.80;;;11.70;47.70;;;;;;5071607;28;20460;-67
2023/05/09 04:11:01;;;;;;;25.47;17.50;;;11.70;48.00;;;;;;5072905;28;20464;-67
2023/05/09 04:13:28;;;;;;;23.73;17.53;;;11.70;48.10;;;;;;5074009;28;20833;-67
2023/05/09 04:15:55;;;;;;;37.77;16.90;;;11.70;48.00;;;;;;5070173;28;20473;-67
2023/05/09 04:18:22;;;;;;;31.30;18.90;;;11.70;48.00;;;;;;5064665;28;20450;-67
2023/05/09 04:20:50;;;;;;;45.43;17.23;;;11.70;48.40;;;;;;5072064;28;20461;-67
2023/05/09 04:23:16;;;;;;;24.37;16.57;;;11.70;48.60;;;;;;5063254;28;20465;-67
2023/05/09 04:25:43;;;;;;;19.27;14.73;;;11.60;48.50;;;;;;5069912;28;20980;-67
2023/05/09 04:28:10;;;;;;;139.03;21.33;;;11.70;48.40;;;;;;5068840;28;20450;-67
2023/05/09 04:30:36;;;;;;;24.87;13.87;;;11.70;48.30;;;;;;5068439;28;20477;-67
2023/05/09 04:33:03;;;;;;;28.10;13.97;;;11.70;48.00;;;;;;5069720;28;20457;-67
2023/05/09 04:35:30;;;;;;;19.27;14.60;;;11.60;47.90;;;;;;5067519;28;20483;-67
2023/05/09 04:37:58;;;;;;;21.83;15.33;;;11.60;47.90;;;;;;5069063;28;20453;-67
2023/05/09 04:40:26;;;;;;;22.57;15.23;;;11.70;47.90;;;;;;5068533;28;21020;-67
2023/05/09 04:42:52;;;;;;;40.67;16.43;;;11.70;48.10;;;;;;5068860;28;20461;-67
2023/05/09 04:45:19;;;;;;;31.50;16.07;;;11.70;48.20;;;;;;5066389;28;20478;-67
2023/05/09 04:47:46;;;;;;;20.20;16.00;;;11.70;48.50;;;;;;5069217;28;20508;-67
2023/05/09 04:50:13;;;;;;;21.97;16.87;;;11.70;48.50;;;;;;5069166;28;20461;-67
2023/05/09 04:52:40;;;;;;;22.87;17.40;;;11.80;48.60;;;;;;5066957;28;20462;-67
2023/05/09 04:55:09;;;;;;;27.53;17.07;;;11.80;48.70;;;;;;5070629;28;20473;-68
2023/05/09 04:57:36;;;;;;;26.30;17.43;;;11.80;48.80;;;;;;5068105;28;21142;-67
2023/05/09 05:00:05;;;;;;;21.50;15.93;;;11.90;48.80;;;;;;5069575;28;20489;-68
2023/05/09 05:02:32;;;;;;;22.13;16.43;;;11.90;49.00;;;;;;5073113;28;20500;-68
2023/05/09 05:04:59;;;;;;;22.40;17.27;;;12.00;48.90;;;;;;5068816;28;20473;-68
2023/05/09 05:07:25;;;;;;;21.83;16.80;;;12.00;48.80;;;;;;5071130;28;20449;-68
2023/05/09 05:09:52;;;;;;;21.07;16.40;;;12.00;48.80;;;;;;5070305;28;20832;-68
2023/05/09 05:12:20;;;;;;;21.40;15.83;;;12.10;48.80;;;;;;5066973;28;20453;-68
2023/05/09 05:14:47;;;;;;;23.97;17.40;;;12.20;48.60;;;;;;5074185;28;20477;-68
2023/05/09 05:17:15;;;;;;;25.43;19.17;;;12.30;48.70;;;;;;5069611;28;20457;-68
2023/05/09 05:19:42;;;;;;;23.77;17.97;;;12.40;48.50;;;;;;5071103;28;20505;-67
2023/05/09 05:22:09;;;;;;;24.27;18.20;;;12.40;48.20;;;;;;5069883;28;20453;-67
2023/05/09 05:24:36;;;;;;;22.83;16.73;;;12.50;48.00;;;;;;5070197;28;20473;-68
2023/05/09 05:27:03;;;;;;;24.80;17.13;;;12.60;47.60;;;;;;5066651;28;20459;-67
2023/05/09 05:29:31;;;;;;;23.27;17.13;;;12.60;47.30;;;;;;5071794;28;20453;-67
2023/05/09 05:31:57;;;;;;;22.33;17.80;;;12.70;47.30;;;;;;5073769;28;20469;-67
2023/05/09 05:34:24;;;;;;;24.73;17.90;;;12.90;47.00;;;;;;5076907;28;20473;-68
2023/05/09 05:36:51;;;;;;;22.73;18.30;;;13.10;47.00;;;;;;5068230;28;20488;-67
2023/05/09 05:39:18;;;;;;;24.10;16.90;;;13.30;46.60;;;;;;5070398;28;20485;-68
2023/05/09 05:41:44;;;;;;;24.20;18.43;;;13.30;46.40;;;;;;5067516;28;20464;-68
2023/05/09 05:44:11;;;;;;;22.30;18.50;;;13.40;46.10;;;;;;5066711;28;20477;-68
2023/05/09 05:46:39;;;;;;;21.63;16.20;;;13.50;45.70;;;;;;5067700;28;20501;-67
2023/05/09 05:49:06;;;;;;;22.93;17.33;;;13.60;45.60;;;;;;5074869;28;20453;-68
2023/05/09 05:51:33;;;;;;;23.17;17.87;;;13.70;45.10;;;;;;5070812;28;20458;-67
2023/05/09 05:53:59;;;;;;;23.60;17.60;;;13.90;44.70;;;;;;5072275;28;20458;-68
2023/05/09 05:56:26;;;;;;;25.33;19.23;;;14.10;43.90;;;;;;5066793;28;20454;-68
2023/05/09 05:58:53;;;;;;;23.80;18.10;;;14.40;43.40;;;;;;5072337;28;20475;-68
2023/05/09 06:01:20;;;;;;;27.83;19.50;;;14.70;43.00;;;;;;5072852;28;20496;-68
2023/05/09 06:03:53;;;;;;;24.70;19.90;;;14.80;40.00;;;;;;5073468;28;20460;-68
2023/05/09 06:06:20;;;;;;;22.13;18.10;;;15.10;39.90;;;;;;5069932;28;20516;-68
2023/05/09 06:08:48;;;;;;;23.77;18.67;;;15.30;39.20;;;;;;5071972;28;20458;-68
2023/05/09 06:11:15;;;;;;;25.73;17.40;;;15.40;38.10;;;;;;5072389;28;20457;-67
2023/05/09 06:13:42;;;;;;;21.87;18.50;;;15.60;37.00;;;;;;5073108;28;20460;-67
2023/05/09 06:16:09;;;;;;;21.70;17.50;;;15.90;35.80;;;;;;5067472;28;20480;-67
2023/05/09 06:18:38;;;;;;;21.63;17.77;;;16.20;35.50;;;;;;5070831;28;20462;-67
2023/05/09 06:21:07;;;;;;;23.80;19.00;;;16.10;35.70;;;;;;5068707;28;21028;-67
2023/05/09 06:23:35;;;;;;;25.87;19.47;;;16.30;34.20;;;;;;5066024;28;20461;-67
2023/05/09 06:26:02;;;;;;;25.70;20.60;;;16.20;34.00;;;;;;5067688;28;20490;-67
2023/05/09 06:28:29;;;;;;;26.13;21.23;;;16.00;32.80;;;;;;5069691;28;20484;-67
2023/05/09 06:30:56;;;;;;;26.73;22.47;;;15.80;32.90;;;;;;5072135;28;20539;-67
2023/05/09 06:33:23;;;;;;;30.40;22.50;;;15.60;33.40;;;;;;5068408;28;21573;-67
2023/05/09 06:35:49;;;;;;;28.30;21.67;;;15.60;33.80;;;;;;5072572;28;20976;-67
2023/05/09 06:38:17;;;;;;;24.83;20.50;;;15.70;34.00;;;;;;5070959;28;20458;-67
2023/05/09 06:40:44;;;;;;;28.40;21.73;;;15.60;34.40;;;;;;5063696;28;20485;-67
2023/05/09 06:43:11;;;;;;;27.07;22.03;;;15.60;34.40;;;;;;5071194;28;20457;-67
2023/05/09 06:45:37;;;;;;;29.50;22.20;;;15.60;34.50;;;;;;5068710;28;20473;-67
2023/05/09 06:48:05;;;;;;;28.63;22.83;;;15.70;34.50;;;;;;5072321;28;20460;-67
2023/05/09 06:50:32;;;;;;;30.10;23.57;;;15.60;34.70;;;;;;5069372;28;20458;-67
2023/05/09 06:52:58;;;;;;;29.17;23.10;;;15.50;35.00;;;;;;5067542;28;20463;-67
2023/05/09 06:55:27;;;;;;;30.33;22.07;;;15.60;35.30;;;;;;5070833;28;21027;-67
2023/05/09 06:57:53;;;;;;;28.83;21.87;;;15.50;35.30;;;;;;5071985;28;21222;-67
2023/05/09 07:00:21;;;;;;;31.87;24.43;;;15.40;35.20;;;;;;5071255;28;20479;-68
2023/05/09 07:02:48;;;;;;;31.03;24.03;;;15.30;35.60;;;;;;5073488;28;20499;-67
2023/05/09 07:05:14;;;;;;;28.97;22.53;;;15.30;36.20;;;;;;5070483;28;20473;-67
2023/05/09 07:07:41;;;;;;;28.20;22.30;;;15.40;36.50;;;;;;5077468;28;20457;-68
2023/05/09 07:10:09;;;;;;;30.17;24.07;;;15.70;36.50;;;;;;5071061;28;20805;-67
2023/05/09 07:12:37;;;;;;;36.83;22.03;;;15.80;35.90;;;;;;5075734;28;20979;-67
2023/05/09 07:15:05;;;;;;;31.37;24.80;;;16.00;35.60;;;;;;5070793;28;20472;-67
2023/05/09 07:17:31;;;;;;;32.97;24.00;;;16.10;35.00;;;;;;5075686;28;20537;-67
2023/05/09 07:19:58;;;;;;;28.30;23.07;;;16.20;34.90;;;;;;5068163;28;20508;-67
2023/05/09 07:22:25;;;;;;;27.93;21.53;;;16.40;35.00;;;;;;5076850;28;20449;-67
2023/05/09 07:24:52;;;;;;;27.23;21.97;;;16.60;34.40;;;;;;5075060;28;20469;-67
2023/05/09 07:27:18;;;;;;;28.60;21.90;;;16.80;33.20;;;;;;5071030;28;20457;-67
2023/05/09 07:29:48;;;;;;;25.80;21.70;;;16.80;32.90;;;;;;5076545;28;21144;-67
2023/05/09 07:32:14;;;;;;;30.73;23.10;;;16.90;33.00;;;;;;5075530;28;20507;-67
2023/05/09 07:34:41;;;;;;;28.00;22.90;;;17.00;33.10;;;;;;5069089;28;20992;-67
2023/05/09 07:37:08;;;;;;;29.83;23.47;;;17.10;33.00;;;;;;5070045;28;20458;-67
2023/05/09 07:39:34;;;;;;;28.53;23.13;;;17.20;32.60;;;;;;5067512;28;21138;-67
2023/05/09 07:42:01;;;;;;;28.67;23.60;;;17.40;32.60;;;;;;5063945;28;20457;-68
2023/05/09 07:44:28;;;;;;;30.13;22.97;;;17.50;32.20;;;;;;5070517;28;20473;-68
2023/05/09 07:46:58;;;;;;;26.50;21.60;;;17.60;31.70;;;;;;5074110;28;20457;-68
2023/05/09 07:49:24;;;;;;;23.47;20.40;;;17.60;31.80;;;;;;5072861;28;20461;-67
2023/05/09 07:51:51;;;;;;;23.13;18.23;;;17.70;31.70;;;;;;5072115;28;20456;-68
2023/05/09 07:54:18;;;;;;;24.57;19.80;;;17.70;30.90;;;;;;5072237;28;20560;-68
2023/05/09 07:56:44;;;;;;;24.07;19.27;;;17.70;30.80;;;;;;5070251;28;20461;-67
2023/05/09 07:59:12;;;;;;;23.60;18.63;;;17.70;30.90;;;;;;5075408;28;20543;-67
2023/05/09 08:01:39;;;;;;;23.80;19.43;;;17.60;30.30;;;;;;5075060;28;20465;-68
2023/05/09 08:04:08;;;;;;;26.03;20.30;;;17.50;31.30;;;;;;5074338;28;20932;-68
2023/05/09 08:06:35;;;;;;;27.60;21.40;;;17.30;31.50;;;;;;5072467;28;20745;-67
2023/05/09 08:09:03;;;;;;;28.83;22.10;;;17.10;31.80;;;;;;5070719;28;20842;-68
2023/05/09 08:11:32;;;;;;;25.90;20.33;;;17.00;32.20;;;;;;5071324;28;20538;-68
2023/05/09 08:13:59;;;;;;;28.40;22.17;;;17.00;32.50;;;;;;5075008;28;20468;-68
2023/05/09 08:16:26;;;;;;;24.80;21.00;;;17.10;32.80;;;;;;5074368;28;20457;-67
2023/05/09 08:18:53;;;;;;;26.20;20.67;;;17.00;32.60;;;;;;5065942;28;20957;-68
2023/05/09 08:21:21;;;;;;;30.03;21.00;;;17.00;32.70;;;;;;5061705;28;20494;-68
2023/05/09 08:23:48;;;;;;;27.50;20.70;;;16.90;33.30;;;;;;5060443;28;20473;-68
2023/05/09 08:26:14;;;;;;;26.10;20.70;;;16.80;33.30;;;;;;5066982;28;20481;-67
2023/05/09 08:28:41;;;;;;;26.90;21.43;;;16.80;33.40;;;;;;5069105;28;20504;-67
2023/05/09 08:31:08;;;;;;;27.03;21.00;;;16.90;33.50;;;;;;5071831;28;20458;-68
2023/05/09 08:33:34;;;;;;;25.20;20.20;;;16.80;33.90;;;;;;5071099;28;20456;-67
2023/05/09 08:36:01;;;;;;;28.93;20.77;;;16.60;34.10;;;;;;5071247;28;20481;-68
2023/05/09 08:38:30;;;;;;;28.40;21.70;;;16.60;34.70;;;;;;5073154;28;20453;-68
2023/05/09 08:41:00;;;;;;;25.47;18.90;;;16.60;34.80;;;;;;5066659;28;20508;-67
2023/05/09 08:43:28;;;;;;;24.03;18.93;;;16.70;34.70;;;;;;5071138;28;20484;-67
2023/05/09 08:45:59;;;;;;;26.80;20.67;;;16.70;34.50;;;;;;5069861;28;20473;-68
2023/05/09 08:48:25;;;;;;;26.10;21.00;;;16.70;34.20;;;;;;5065511;28;20453;-67
2023/05/09 08:50:53;;;;;;;27.97;22.70;;;16.90;34.50;;;;;;5064992;28;20479;-67
2023/05/09 08:53:21;;;;;;;26.17;21.30;;;16.90;34.20;;;;;;5072567;28;20449;-67
2023/05/09 08:55:49;;;;;;;26.57;21.73;;;17.00;34.20;;;;;;5061925;28;20500;-67
2023/05/09 08:58:18;;;;;;;29.13;21.57;;;17.10;33.50;;;;;;5067866;28;21342;-67
2023/05/09 09:00:45;;;;;;;27.97;23.13;;;17.20;32.70;;;;;;5066002;28;20550;-68
2023/05/09 09:03:12;;;;;;;29.60;23.00;;;17.30;32.50;;;;;;5065568;28;20465;-68
2023/05/09 09:05:42;;;;;;;32.50;21.67;;;17.40;32.40;;;;;;5069467;28;20477;-68
2023/05/09 09:08:10;;;;;;;27.07;22.03;;;17.40;33.10;;;;;;5064981;28;20812;-68
2023/05/09 09:10:40;;;;;;;28.10;23.30;;;17.50;32.50;;;;;;5071900;28;20465;-67
2023/05/09 09:13:11;;;;;;;29.10;22.37;;;17.50;32.30;;;;;;5051560;28;20453;-67
2023/05/09 09:15:40;;;;;;;28.77;22.60;;;17.50;32.30;;;;;;5070797;28;20481;-68
2023/05/09 09:18:08;;;;;;;27.70;22.73;;;17.50;32.60;;;;;;5069397;28;20580;-68
2023/05/09 09:20:40;;;;;;;32.30;25.20;;;17.60;32.40;;;;;;5069472;28;20523;-67
2023/05/09 09:23:10;;;;;;;26.60;21.27;;;17.50;32.70;;;;;;5073425;28;20582;-68
2023/05/09 09:25:37;;;;;;;26.13;20.70;;;17.40;33.10;;;;;;5074473;28;20473;-68
2023/05/09 09:30:47;;;;;;;27.57;22.27;;;17.70;32.80;;;;;;5061948;28;20449;-68
2023/05/09 09:33:20;;;;;;;28.70;21.47;;;18.30;32.10;;;;;;5062782;28;20461;-68
2023/05/09 09:35:48;;;;;;;29.10;21.80;;;18.60;30.70;;;;;;5045603;28;21052;-68
2023/05/09 09:38:15;;;;;;;24.17;19.57;;;18.60;29.80;;;;;;5044738;28;20469;-67
2023/05/09 09:40:49;;;;;;;23.60;19.60;;;18.80;29.20;;;;;;5050639;28;20478;-68
2023/05/09 09:43:15;;;;;;;25.93;21.13;;;18.80;28.70;;;;;;5047986;28;20545;-68
2023/05/09 09:45:42;;;;;;;24.40;20.30;;;18.70;28.70;;;;;;5040457;28;20478;-68
2023/05/09 09:48:10;;;;;;;24.13;20.23;;;18.80;28.50;;;;;;5046007;28;20455;-69
2023/05/09 09:50:37;;;;;;;25.13;21.10;;;18.80;28.50;;;;;;5042299;28;20458;-68
2023/05/09 09:53:03;;;;;;;25.00;20.07;;;18.70;29.20;;;;;;5044079;28;20462;-69
2023/05/09 09:55:31;;;;;;;23.83;19.60;;;18.90;29.40;;;;;;5023790;28;20513;-69
2023/05/09 09:57:58;;;;;;;26.97;21.10;;;19.30;27.80;;;;;;5046118;28;20458;-69
2023/05/09 10:00:27;;;;;;;23.70;19.03;;;19.60;27.90;;;;;;5037130;28;20530;-70
2023/05/09 10:02:55;;;;;;;23.10;18.90;;;19.90;27.10;;;;;;5036801;28;20459;-69
2023/05/09 10:05:24;;;;;;;22.90;19.57;;;20.10;26.50;;;;;;5041957;28;20477;-68
2023/05/09 10:07:55;;;;;;;21.63;18.40;;;20.00;24.70;;;;;;5041746;28;20463;-68
2023/05/09 10:10:24;;;;;;;21.90;18.37;;;20.20;23.90;;;;;;5042822;28;20497;-69
2023/05/09 10:12:53;;;;;;;20.90;16.97;;;20.40;23.10;;;;;;5040367;28;20465;-69
2023/05/09 10:15:20;;;;;;;21.00;17.70;;;20.40;22.80;;;;;;5042184;28;20482;-69
2023/05/09 10:17:50;;;;;;;22.13;18.20;;;20.20;23.30;;;;;;5048837;28;20938;-69
2023/05/09 10:20:18;;;;;;;22.70;17.47;;;20.10;23.70;;;;;;5036449;28;20454;-69
2023/05/09 10:22:48;;;;;;;21.20;17.60;;;20.10;24.20;;;;;;5039884;28;20459;-68
2023/05/09 10:25:19;;;;;;;20.17;16.60;;;20.00;24.20;;;;;;5039988;28;20482;-69
2023/05/09 10:27:47;;;;;;;20.40;17.13;;;20.30;24.50;;;;;;5043178;28;20454;-68
2023/05/09 10:30:18;;;;;;;19.90;15.50;;;20.70;23.70;;;;;;5046118;28;20471;-69
2023/05/09 10:32:51;;;;;;;19.60;15.73;;;21.10;23.00;;;;;;5041294;28;20494;-69
2023/05/09 10:35:20;;;;;;;18.50;15.13;;;21.40;21.30;;;;;;5035460;28;20980;-69
2023/05/09 10:37:48;;;;;;;18.27;13.97;;;21.50;19.90;;;;;;5038059;28;20560;-69
2023/05/09 10:40:15;;;;;;;16.67;13.90;;;21.80;19.70;;;;;;5045603;28;20465;-69
2023/05/09 10:42:42;;;;;;;19.90;14.40;;;22.20;19.40;;;;;;5036941;28;20845;-70
2023/05/09 10:45:11;;;;;;;18.50;13.40;;;22.60;17.40;;;;;;5047743;28;20517;-68
2023/05/09 10:47:39;;;;;;;16.43;13.07;;;22.80;16.90;;;;;;5040020;28;20466;-69
2023/05/09 10:50:07;;;;;;;16.30;13.20;;;22.80;16.30;;;;;;5042455;28;20470;-69
2023/05/09 10:52:37;;;;;;;15.60;12.73;;;23.00;16.70;;;;;;5041708;28;20457;-70
2023/05/09 10:55:06;;;;;;;15.27;12.30;;;23.00;15.60;;;;;;5037762;28;20485;-69
2023/05/09 10:57:38;;;;;;;17.70;13.83;;;23.00;15.90;;;;;;5036011;28;20476;-69
2023/05/09 11:00:07;;;;;;;16.33;13.27;;;23.20;15.60;;;;;;5031965;28;20461;-69
2023/05/09 11:02:34;;;;;;;14.73;11.90;;;23.50;15.10;;;;;;5042796;28;20470;-69
2023/05/09 11:05:14;;;;;;;15.93;12.80;;;23.60;15.00;;;;;;5039846;28;20562;-70
2023/05/09 11:07:42;;;;;;;15.10;12.47;;;23.70;15.20;;;;;;5042228;28;21018;-69
2023/05/09 11:10:15;;;;;;;15.37;12.23;;;23.80;14.50;;;;;;5038056;28;20466;-69
2023/05/09 11:12:55;;;;;;;13.20;11.23;;;23.70;14.70;;;;;;5037872;28;20474;-70
2023/05/09 11:15:22;;;;;;;11.90;9.80;;;23.80;13.70;;;;;;5043927;28;20482;-68
2023/05/09 11:18:04;;;;;;;13.60;10.50;;;24.10;14.60;;;;;;5032093;28;20462;-68
2023/05/09 11:20:33;;;;;;;15.57;11.53;;;24.00;12.50;;;;;;5035483;28;20465;-69
2023/05/09 11:23:03;;;;;;;12.77;10.67;;;23.90;13.00;;;;;;5044715;28;20481;-68
2023/05/09 11:25:31;;;;;;;10.87;8.43;;;23.80;12.50;;;;;;5041046;28;20481;-69
2023/05/09 11:28:00;;;;;;;12.90;8.93;;;23.50;13.20;;;;;;5049132;28;20461;-69
2023/05/09 11:30:38;;;;;;;12.80;10.50;;;23.60;13.60;;;;;;5038497;28;20473;-69
2023/05/09 11:33:05;;;;;;;13.03;11.10;;;23.50;12.80;;;;;;5035208;28;20458;-70
2023/05/09 11:35:33;;;;;;;14.63;10.40;;;23.40;13.40;;;;;;5042568;28;21496;-69
2023/05/09 11:38:01;;;;;;;13.53;10.67;;;23.40;14.20;;;;;;5038613;28;21037;-69
2023/05/09 11:40:29;;;;;;;13.10;10.30;;;23.40;14.90;;;;;;5046218;28;20458;-70
2023/05/09 11:42:58;;;;;;;12.70;10.20;;;23.50;15.80;;;;;;5043859;28;20521;-70
2023/05/09 11:45:27;;;;;;;12.17;9.50;;;23.70;15.40;;;;;;5035991;28;20485;-72
2023/05/09 11:47:53;;;;;;;10.80;8.80;;;23.80;14.80;;;;;;5046042;28;20466;-69
2023/05/09 11:50:21;;;;;;;12.57;9.37;;;23.90;14.90;;;;;;5041071;28;20470;-69
2023/05/09 11:52:48;;;;;;;13.57;9.33;;;23.90;14.10;;;;;;5052548;28;20462;-69
2023/05/09 11:55:16;;;;;;;13.27;11.00;;;24.00;14.50;;;;;;5046198;28;20474;-69
2023/05/09 11:57:45;;;;;;;12.60;9.17;;;24.20;14.70;;;;;;5044302;28;20453;-69
2023/05/09 12:00:16;;;;;;;10.47;9.00;;;24.30;13.50;;;;;;5043181;28;20465;-69
2023/05/09 12:02:44;;;;;;;9.50;7.30;;;24.10;13.50;;;;;;5048609;28;20851;-69
2023/05/09 12:05:12;;;;;;;9.90;7.53;;;23.80;11.70;;;;;;5047451;28;20517;-70
2023/05/09 12:07:40;;;;;;;10.33;7.20;;;23.40;12.10;;;;;;5044137;28;20938;-68
2023/05/09 12:10:08;;;;;;;11.47;8.23;;;23.10;12.80;;;;;;5046221;28;20861;-69
2023/05/09 12:12:36;;;;;;;12.03;8.40;;;22.90;13.80;;;;;;5044369;28;20465;-70
2023/05/09 12:15:04;;;;;;;10.50;8.20;;;22.80;14.30;;;;;;5042473;28;20490;-69
2023/05/09 12:17:32;;;;;;;11.47;8.70;;;22.80;14.30;;;;;;5039901;28;20460;-68
2023/05/09 12:20:00;;;;;;;13.70;8.73;;;22.70;13.40;;;;;;5044830;28;20817;-68
2023/05/09 12:22:29;;;;;;;10.97;8.27;;;22.60;13.60;;;;;;5043187;28;20895;-69
2023/05/09 12:24:56;;;;;;;10.50;7.47;;;22.70;14.60;;;;;;5040720;28;20477;-69
2023/05/09 12:27:25;;;;;;;11.07;8.40;;;22.80;14.50;;;;;;5038374;28;20462;-69
2023/05/09 12:29:52;;;;;;;10.53;8.30;;;22.90;13.80;;;;;;5042690;28;20466;-69
2023/05/09 12:32:19;;;;;;;11.30;7.33;;;22.90;13.80;;;;;;5047428;28;20477;-69
2023/05/09 12:34:47;;;;;;;9.70;7.47;;;22.80;14.70;;;;;;5044017;28;20478;-69